Погода Бейрутна 2 недели

Бейрут, Ливан

15 - 28 июля
  • 15июля
    Сегодня
    +27°
    +32°
    Ясно и безоблачно
    ВремяПогодаТемператураВлажностьДавлениеВетер, м/сВероятность осадков
    00:00Практически безоблачно+29°C77 %748 мм3.8 м/с3 %
    03:00Практически безоблачно+29°C77 %747 мм4.0 м/с2 %
    06:00Практически безоблачно+28°C72 %748 мм2.7 м/с1 %
    09:00Ясно и безоблачно+30°C59 %748 мм5.6 м/с1 %
    12:00Ясно и безоблачно+31°C65 %749 мм6.1 м/с1 %
    15:00Ясно и безоблачно+32°C66 %749 мм6.3 м/с1 %
    18:00Ясно и безоблачно+31°C66 %748 мм4.8 м/с1 %
    21:00Ясно и безоблачно+29°C74 %749 мм3.3 м/с1 %
  • 16июля
    Вторник
    +26°
    +32°
    Ясно и безоблачно
    ВремяПогодаТемператураВлажностьДавлениеВетер, м/сВероятность осадков
    00:00Ясно и безоблачно+28°C76 %749 мм3.1 м/с1 %
    03:00Ясно и безоблачно+28°C70 %748 мм2.5 м/с1 %
    06:00Ясно и безоблачно+28°C67 %749 мм2.1 м/с1 %
    09:00Ясно и безоблачно+30°C65 %749 мм5.2 м/с1 %
    12:00Ясно и безоблачно+31°C67 %750 мм5.4 м/с1 %
    15:00Ясно и безоблачно+31°C65 %749 мм5.4 м/с1 %
    18:00Ясно и безоблачно+30°C73 %749 мм4.0 м/с1 %
    21:00Ясно и безоблачно+29°C80 %749 мм2.8 м/с1 %
  • 17июля
    Среда
    +26°
    +32°
    Ясно и безоблачно
    ВремяПогодаТемператураВлажностьДавлениеВетер, м/сВероятность осадков
    00:00Ясно и безоблачно+28°C80 %749 мм2.2 м/с1 %
    03:00Ясно и безоблачно+27°C76 %749 мм2.1 м/с1 %
    06:00Ясно и безоблачно+27°C73 %749 мм1.9 м/с1 %
    09:00Ясно и безоблачно+29°C73 %750 мм4.7 м/с1 %
    12:00Ясно и безоблачно+30°C69 %751 мм5.0 м/с1 %
    15:00Ясно и безоблачно+31°C68 %750 мм5.0 м/с1 %
    18:00Ясно и безоблачно+30°C70 %750 мм3.5 м/с1 %
    21:00Ясно и безоблачно+29°C74 %750 мм2.3 м/с1 %
  • 18июля
    Четверг
    +27°
    +32°
    Ясно и безоблачно
    ВремяПогодаТемператураВлажностьДавлениеВетер, м/сВероятность осадков
    00:00Ясно и безоблачно+28°C73 %750 мм1.9 м/с1 %
    03:00Ясно и безоблачно+27°C68 %749 мм2.0 м/с1 %
    06:00Ясно и безоблачно+27°C66 %749 мм1.6 м/с1 %
    09:00Ясно и безоблачно+30°C64 %750 мм4.3 м/с1 %
    12:00Ясно и безоблачно+31°C66 %750 мм4.9 м/с1 %
    15:00Ясно и безоблачно+32°C70 %750 мм5.0 м/с1 %
    18:00Ясно и безоблачно+31°C75 %749 мм4.0 м/с1 %
    21:00Ясно и безоблачно+29°C77 %749 мм2.7 м/с1 %
  • 19июля
    Пятница
    +27°
    +32°
    Ясно и безоблачно
    ВремяПогодаТемператураВлажностьДавлениеВетер, м/сВероятность осадков
    00:00Ясно и безоблачно+28°C72 %749 мм2.1 м/с1 %
    03:00Ясно и безоблачно+28°C66 %748 мм2.2 м/с1 %
    06:00Ясно и безоблачно+28°C64 %748 мм1.9 м/с1 %
    09:00Ясно и безоблачно+30°C63 %748 мм5.0 м/с1 %
    12:00Ясно и безоблачно+31°C70 %748 мм5.4 м/с1 %
    15:00Ясно и безоблачно+32°C66 %748 мм5.6 м/с1 %
    18:00Ясно и безоблачно+31°C69 %747 мм4.4 м/с1 %
    21:00Ясно и безоблачно+29°C78 %747 мм3.3 м/с1 %
Мы используем cookies
Соглашаюсь